Terminal Aerodrome Forecast
Issued by NWS

Home | Current Version | Previous Version | Text Only | Print | Product List | Glossary On
Versions: 1 2 3 4 5 6 7 8 9 10 11 12 13 14 15 16 17 18 19 20 21 22 23
598
FTUS43 KLSX 200142 AAA
TAFUIN
TAF AMD
KUIN 200142Z 2002/2024 19010G18KT P6SM -SHRA VCTS OVC035CB
      TEMPO 2002/2004 5SM -TSRA BR BKN025CB
     FM200400 19013G21KT 4SM -SHRA VCTS OVC015CB
     FM201100 19013G21KT 4SM -SHRA OVC015
     FM201700 23013G24KT 3SM -SHRA OVC015
     FM202000 27013G24KT 3SM -SHRA OVC010=

USA.gov is the U.S. government's official web portal to all federal, state and local government web resources and services.